sensor_id;sensor_type;location;lat;lon;timestamp;pressure;altitude;pressure_sealevel;temperature;humidity
71996;BME280;59862;47.732;7.346;2023-08-24T00:02:08;98163.27;;;22.08;65.17
71996;BME280;59862;47.732;7.346;2023-08-24T00:04:37;98167.40;;;22.08;65.21
71996;BME280;59862;47.732;7.346;2023-08-24T00:07:04;98166.23;;;21.98;65.31
71996;BME280;59862;47.732;7.346;2023-08-24T00:09:32;98171.36;;;21.96;65.87
71996;BME280;59862;47.732;7.346;2023-08-24T00:11:59;98165.85;;;22.00;65.29
71996;BME280;59862;47.732;7.346;2023-08-24T00:14:27;98156.59;;;22.02;65.34
71996;BME280;59862;47.732;7.346;2023-08-24T00:16:54;98154.91;;;21.82;66.01
71996;BME280;59862;47.732;7.346;2023-08-24T00:19:21;98151.39;;;21.77;65.89
71996;BME280;59862;47.732;7.346;2023-08-24T00:21:49;98149.59;;;21.79;65.78
71996;BME280;59862;47.732;7.346;2023-08-24T00:24:16;98140.09;;;21.98;65.04
71996;BME280;59862;47.732;7.346;2023-08-24T00:26:44;98139.53;;;21.91;65.14
71996;BME280;59862;47.732;7.346;2023-08-24T00:29:12;98133.59;;;22.00;64.59
71996;BME280;59862;47.732;7.346;2023-08-24T00:31:39;98125.89;;;22.11;64.24
71996;BME280;59862;47.732;7.346;2023-08-24T00:34:07;98132.22;;;22.04;64.70
71996;BME280;59862;47.732;7.346;2023-08-24T00:36:34;98139.88;;;22.08;64.51
71996;BME280;59862;47.732;7.346;2023-08-24T00:39:02;98139.91;;;21.93;65.18
71996;BME280;59862;47.732;7.346;2023-08-24T00:41:29;98139.34;;;21.94;65.08
71996;BME280;59862;47.732;7.346;2023-08-24T00:43:57;98130.52;;;21.91;65.04
71996;BME280;59862;47.732;7.346;2023-08-24T00:46:26;98124.02;;;21.93;64.68
71996;BME280;59862;47.732;7.346;2023-08-24T00:48:55;98113.03;;;21.86;65.25
71996;BME280;59862;47.732;7.346;2023-08-24T00:51:26;98112.59;;;21.94;64.89
71996;BME280;59862;47.732;7.346;2023-08-24T00:53:54;98113.45;;;21.80;65.26
71996;BME280;59862;47.732;7.346;2023-08-24T00:56:23;98108.91;;;21.86;65.21
71996;BME280;59862;47.732;7.346;2023-08-24T00:58:52;98103.73;;;22.02;64.22
71996;BME280;59862;47.732;7.346;2023-08-24T01:01:21;98097.88;;;21.97;64.51
71996;BME280;59862;47.732;7.346;2023-08-24T01:03:51;98095.70;;;21.92;64.92
71996;BME280;59862;47.732;7.346;2023-08-24T01:06:19;98093.25;;;21.75;65.78
71996;BME280;59862;47.732;7.346;2023-08-24T01:08:47;98098.95;;;21.69;65.74
71996;BME280;59862;47.732;7.346;2023-08-24T01:11:31;98097.77;;;21.70;65.95
71996;BME280;59862;47.732;7.346;2023-08-24T01:16:58;98093.95;;;21.90;64.44
71996;BME280;59862;47.732;7.346;2023-08-24T01:19:37;98098.52;;;21.78;65.68
71996;BME280;59862;47.732;7.346;2023-08-24T01:24:53;98092.08;;;21.69;65.41
71996;BME280;59862;47.732;7.346;2023-08-24T01:27:19;98081.48;;;21.64;65.86
71996;BME280;59862;47.732;7.346;2023-08-24T01:29:48;98081.67;;;21.65;65.12
71996;BME280;59862;47.732;7.346;2023-08-24T01:32:17;98071.44;;;21.62;65.73
71996;BME280;59862;47.732;7.346;2023-08-24T01:34:45;98075.18;;;21.63;65.29
71996;BME280;59862;47.732;7.346;2023-08-24T01:37:13;98076.38;;;21.59;65.45
71996;BME280;59862;47.732;7.346;2023-08-24T01:39:46;98079.17;;;21.44;66.55
71996;BME280;59862;47.732;7.346;2023-08-24T01:42:21;98081.53;;;21.49;66.30
71996;BME280;59862;47.732;7.346;2023-08-24T01:44:42;98083.25;;;21.55;65.41
71996;BME280;59862;47.732;7.346;2023-08-24T01:47:12;98089.36;;;21.47;66.17
71996;BME280;59862;47.732;7.346;2023-08-24T01:49:41;98090.97;;;21.34;66.62
71996;BME280;59862;47.732;7.346;2023-08-24T01:52:10;98082.95;;;21.24;67.22
71996;BME280;59862;47.732;7.346;2023-08-24T01:54:39;98079.63;;;21.24;67.21
71996;BME280;59862;47.732;7.346;2023-08-24T01:57:07;98072.53;;;21.38;66.63
71996;BME280;59862;47.732;7.346;2023-08-24T01:59:34;98072.16;;;21.25;67.17
71996;BME280;59862;47.732;7.346;2023-08-24T02:02:01;98068.83;;;21.15;67.93
71996;BME280;59862;47.732;7.346;2023-08-24T02:04:29;98070.02;;;21.10;67.96
71996;BME280;59862;47.732;7.346;2023-08-24T02:06:56;98070.92;;;21.41;66.79
71996;BME280;59862;47.732;7.346;2023-08-24T02:09:24;98069.37;;;21.36;67.49
71996;BME280;59862;47.732;7.346;2023-08-24T02:11:51;98062.11;;;21.37;66.94
71996;BME280;59862;47.732;7.346;2023-08-24T02:14:19;98057.41;;;21.38;66.73
71996;BME280;59862;47.732;7.346;2023-08-24T02:16:46;98055.00;;;21.47;66.53
71996;BME280;59862;47.732;7.346;2023-08-24T02:19:14;98054.80;;;21.53;66.75
71996;BME280;59862;47.732;7.346;2023-08-24T02:21:41;98053.80;;;21.59;66.23
71996;BME280;59862;47.732;7.346;2023-08-24T02:24:09;98051.00;;;21.77;65.00
71996;BME280;59862;47.732;7.346;2023-08-24T02:26:37;98041.96;;;21.73;65.01
71996;BME280;59862;47.732;7.346;2023-08-24T02:29:04;98040.20;;;21.71;65.48
71996;BME280;59862;47.732;7.346;2023-08-24T02:31:32;98043.74;;;21.75;64.87
71996;BME280;59862;47.732;7.346;2023-08-24T02:34:00;98039.58;;;21.79;65.19
71996;BME280;59862;47.732;7.346;2023-08-24T02:36:27;98036.26;;;21.76;65.67
71996;BME280;59862;47.732;7.346;2023-08-24T02:38:55;98042.19;;;21.71;65.07
71996;BME280;59862;47.732;7.346;2023-08-24T02:41:22;98039.77;;;21.80;65.29
71996;BME280;59862;47.732;7.346;2023-08-24T02:43:50;98035.88;;;21.74;64.77
71996;BME280;59862;47.732;7.346;2023-08-24T02:46:17;98035.61;;;21.87;64.43
71996;BME280;59862;47.732;7.346;2023-08-24T02:48:45;98024.83;;;21.81;65.07
71996;BME280;59862;47.732;7.346;2023-08-24T02:51:12;98027.25;;;21.72;64.82
71996;BME280;59862;47.732;7.346;2023-08-24T02:53:40;98022.31;;;21.75;64.58
71996;BME280;59862;47.732;7.346;2023-08-24T02:56:07;98025.83;;;21.79;64.45
71996;BME280;59862;47.732;7.346;2023-08-24T02:58:35;98027.24;;;21.64;65.69
71996;BME280;59862;47.732;7.346;2023-08-24T03:01:09;98019.41;;;21.66;64.90
71996;BME280;59862;47.732;7.346;2023-08-24T03:03:37;98021.56;;;21.60;65.38
71996;BME280;59862;47.732;7.346;2023-08-24T03:06:06;98033.80;;;21.48;66.39
71996;BME280;59862;47.732;7.346;2023-08-24T03:08:34;98025.56;;;21.44;66.36
71996;BME280;59862;47.732;7.346;2023-08-24T03:11:02;98027.36;;;21.39;66.70
71996;BME280;59862;47.732;7.346;2023-08-24T03:13:30;98018.56;;;21.25;67.41
71996;BME280;59862;47.732;7.346;2023-08-24T03:16:02;98019.75;;;21.17;67.56
71996;BME280;59862;47.732;7.346;2023-08-24T03:18:28;98012.92;;;21.09;68.00
71996;BME280;59862;47.732;7.346;2023-08-24T03:20:56;98010.94;;;21.17;67.64
71996;BME280;59862;47.732;7.346;2023-08-24T03:23:23;98023.14;;;20.91;68.93
71996;BME280;59862;47.732;7.346;2023-08-24T03:25:51;98024.71;;;20.95;68.84
71996;BME280;59862;47.732;7.346;2023-08-24T03:28:19;98027.86;;;20.76;69.71
71996;BME280;59862;47.732;7.346;2023-08-24T03:30:49;98024.73;;;20.70;70.58
71996;BME280;59862;47.732;7.346;2023-08-24T03:33:17;98030.80;;;20.69;70.13
71996;BME280;59862;47.732;7.346;2023-08-24T03:35:45;98031.20;;;20.64;70.58
71996;BME280;59862;47.732;7.346;2023-08-24T03:38:14;98021.58;;;20.57;70.96
71996;BME280;59862;47.732;7.346;2023-08-24T03:40:41;98016.30;;;20.65;70.91
71996;BME280;59862;47.732;7.346;2023-08-24T03:43:09;98016.70;;;20.57;71.17
71996;BME280;59862;47.732;7.346;2023-08-24T03:45:36;98019.23;;;20.66;69.84
71996;BME280;59862;47.732;7.346;2023-08-24T03:48:04;98024.32;;;20.79;69.74
71996;BME280;59862;47.732;7.346;2023-08-24T03:50:31;98025.50;;;20.78;69.20
71996;BME280;59862;47.732;7.346;2023-08-24T03:52:59;98014.92;;;20.73;69.54
71996;BME280;59862;47.732;7.346;2023-08-24T03:55:26;98010.59;;;20.79;69.19
71996;BME280;59862;47.732;7.346;2023-08-24T03:57:54;98009.82;;;20.75;69.61
71996;BME280;59862;47.732;7.346;2023-08-24T04:00:21;98015.50;;;20.68;69.39
71996;BME280;59862;47.732;7.346;2023-08-24T04:02:49;98001.58;;;20.75;68.67
71996;BME280;59862;47.732;7.346;2023-08-24T04:05:16;97998.65;;;20.81;68.91
71996;BME280;59862;47.732;7.346;2023-08-24T04:07:44;97999.22;;;20.73;69.24
71996;BME280;59862;47.732;7.346;2023-08-24T04:10:12;97995.30;;;20.74;69.23
71996;BME280;59862;47.732;7.346;2023-08-24T04:12:39;98006.11;;;20.62;69.67
71996;BME280;59862;47.732;7.346;2023-08-24T04:15:08;98003.77;;;20.50;70.06
71996;BME280;59862;47.732;7.346;2023-08-24T04:17:36;98006.09;;;20.37;71.54
71996;BME280;59862;47.732;7.346;2023-08-24T04:20:05;98012.17;;;20.29;71.58
71996;BME280;59862;47.732;7.346;2023-08-24T04:22:34;98006.88;;;20.45;70.79
71996;BME280;59862;47.732;7.346;2023-08-24T04:25:01;98006.30;;;20.38;71.47
71996;BME280;59862;47.732;7.346;2023-08-24T04:27:29;98012.58;;;20.38;71.05
71996;BME280;59862;47.732;7.346;2023-08-24T04:29:56;98024.92;;;20.24;71.58
71996;BME280;59862;47.732;7.346;2023-08-24T04:32:24;98018.64;;;20.27;71.35
71996;BME280;59862;47.732;7.346;2023-08-24T04:34:51;98014.91;;;20.25;71.80
71996;BME280;59862;47.732;7.346;2023-08-24T04:37:19;98022.56;;;20.26;72.17
71996;BME280;59862;47.732;7.346;2023-08-24T04:39:46;98022.76;;;20.16;72.15
71996;BME280;59862;47.732;7.346;2023-08-24T04:42:14;98027.63;;;20.13;72.29
71996;BME280;59862;47.732;7.346;2023-08-24T04:44:41;98023.74;;;20.14;72.55
71996;BME280;59862;47.732;7.346;2023-08-24T04:47:08;98021.17;;;20.19;71.91
71996;BME280;59862;47.732;7.346;2023-08-24T04:49:36;98023.52;;;20.13;72.23
71996;BME280;59862;47.732;7.346;2023-08-24T04:52:05;98024.89;;;20.13;72.17
71996;BME280;59862;47.732;7.346;2023-08-24T04:54:33;98026.08;;;20.08;72.84
71996;BME280;59862;47.732;7.346;2023-08-24T04:57:00;98019.41;;;20.17;72.50
71996;BME280;59862;47.732;7.346;2023-08-24T04:59:28;98024.52;;;20.18;72.27
71996;BME280;59862;47.732;7.346;2023-08-24T05:01:55;98024.13;;;20.27;71.82
71996;BME280;59862;47.732;7.346;2023-08-24T05:04:23;98024.91;;;20.31;71.85
71996;BME280;59862;47.732;7.346;2023-08-24T05:06:50;98030.22;;;20.23;72.63
71996;BME280;59862;47.732;7.346;2023-08-24T05:09:18;98029.41;;;20.19;72.94
71996;BME280;59862;47.732;7.346;2023-08-24T05:11:45;98028.23;;;20.20;72.85
71996;BME280;59862;47.732;7.346;2023-08-24T05:14:12;98027.64;;;20.17;72.73
71996;BME280;59862;47.732;7.346;2023-08-24T05:16:40;98028.83;;;20.19;73.32
71996;BME280;59862;47.732;7.346;2023-08-24T05:19:08;98029.79;;;20.10;73.32
71996;BME280;59862;47.732;7.346;2023-08-24T05:21:35;98029.39;;;20.04;73.66
71996;BME280;59862;47.732;7.346;2023-08-24T05:24:03;98030.01;;;20.18;73.25
71996;BME280;59862;47.732;7.346;2023-08-24T05:26:31;98029.23;;;20.14;73.47
71996;BME280;59862;47.732;7.346;2023-08-24T05:28:58;98036.09;;;20.25;73.10
71996;BME280;59862;47.732;7.346;2023-08-24T05:31:26;98033.73;;;20.23;74.38
71996;BME280;59862;47.732;7.346;2023-08-24T05:33:53;98036.88;;;20.22;74.17
71996;BME280;59862;47.732;7.346;2023-08-24T05:36:20;98036.86;;;20.25;74.33
71996;BME280;59862;47.732;7.346;2023-08-24T05:38:48;98042.57;;;20.26;72.94
71996;BME280;59862;47.732;7.346;2023-08-24T05:41:15;98041.00;;;20.33;73.51
71996;BME280;59862;47.732;7.346;2023-08-24T05:43:43;98036.48;;;20.38;73.23
71996;BME280;59862;47.732;7.346;2023-08-24T05:46:10;98037.66;;;20.40;72.16
71996;BME280;59862;47.732;7.346;2023-08-24T05:48:38;98029.42;;;20.37;72.99
71996;BME280;59862;47.732;7.346;2023-08-24T05:51:05;98019.64;;;20.58;72.95
71996;BME280;59862;47.732;7.346;2023-08-24T05:53:34;98023.38;;;20.59;72.11
71996;BME280;59862;47.732;7.346;2023-08-24T05:56:01;98020.42;;;20.84;71.88
71996;BME280;59862;47.732;7.346;2023-08-24T05:58:29;98025.51;;;20.92;72.64
71996;BME280;59862;47.732;7.346;2023-08-24T06:00:58;98027.65;;;21.00;71.11
71996;BME280;59862;47.732;7.346;2023-08-24T06:03:26;98029.59;;;21.03;70.79
71996;BME280;59862;47.732;7.346;2023-08-24T06:06:00;98029.17;;;21.19;70.01
71996;BME280;59862;47.732;7.346;2023-08-24T06:08:23;98024.23;;;21.37;69.78
71996;BME280;59862;47.732;7.346;2023-08-24T06:10:50;98026.95;;;21.41;69.53
71996;BME280;59862;47.732;7.346;2023-08-24T06:13:18;98026.92;;;21.51;69.14
71996;BME280;59862;47.732;7.346;2023-08-24T06:15:45;98021.39;;;21.55;68.92
71996;BME280;59862;47.732;7.346;2023-08-24T06:18:13;98024.38;;;21.49;69.14
71996;BME280;59862;47.732;7.346;2023-08-24T06:20:40;98030.62;;;21.53;69.04
71996;BME280;59862;47.732;7.346;2023-08-24T06:23:07;98031.82;;;21.48;69.00
71996;BME280;59862;47.732;7.346;2023-08-24T06:25:36;98034.00;;;21.45;69.95
71996;BME280;59862;47.732;7.346;2023-08-24T06:28:04;98030.11;;;21.39;69.93
71996;BME280;59862;47.732;7.346;2023-08-24T06:30:32;98032.26;;;21.36;70.62
71996;BME280;59862;47.732;7.346;2023-08-24T06:33:01;98028.13;;;21.43;70.10
71996;BME280;59862;47.732;7.346;2023-08-24T06:35:28;98034.42;;;21.44;70.50
71996;BME280;59862;47.732;7.346;2023-08-24T06:37:56;98039.55;;;21.31;70.66
71996;BME280;59862;47.732;7.346;2023-08-24T06:40:23;98032.72;;;21.23;70.61
71996;BME280;59862;47.732;7.346;2023-08-24T06:42:51;98031.88;;;21.34;70.16
71996;BME280;59862;47.732;7.346;2023-08-24T06:45:18;98036.36;;;21.50;69.20
71996;BME280;59862;47.732;7.346;2023-08-24T06:47:45;98030.45;;;21.48;69.25
71996;BME280;59862;47.732;7.346;2023-08-24T06:50:13;98029.85;;;21.56;70.13
71996;BME280;59862;47.732;7.346;2023-08-24T06:52:42;98022.95;;;21.67;70.22
71996;BME280;59862;47.732;7.346;2023-08-24T06:55:09;98018.50;;;21.88;69.39
71996;BME280;59862;47.732;7.346;2023-08-24T06:57:38;98014.06;;;22.08;67.64
71996;BME280;59862;47.732;7.346;2023-08-24T07:00:07;98015.95;;;22.22;66.33
71996;BME280;59862;47.732;7.346;2023-08-24T07:02:36;98018.16;;;22.16;66.28
71996;BME280;59862;47.732;7.346;2023-08-24T07:05:04;98007.56;;;22.11;66.66
71996;BME280;59862;47.732;7.346;2023-08-24T07:07:32;98009.63;;;22.26;66.09
71996;BME280;59862;47.732;7.346;2023-08-24T07:09:59;98009.19;;;22.31;66.91
71996;BME280;59862;47.732;7.346;2023-08-24T07:12:27;98012.61;;;22.46;66.17
71996;BME280;59862;47.732;7.346;2023-08-24T07:14:55;98012.70;;;22.61;65.92
71996;BME280;59862;47.732;7.346;2023-08-24T07:17:22;98010.83;;;22.74;64.96
71996;BME280;59862;47.732;7.346;2023-08-24T07:19:51;98001.84;;;22.66;63.81
71996;BME280;59862;47.732;7.346;2023-08-24T07:22:19;98011.03;;;22.71;64.64
71996;BME280;59862;47.732;7.346;2023-08-24T07:24:46;98009.31;;;22.65;63.89
71996;BME280;59862;47.732;7.346;2023-08-24T07:27:15;98009.45;;;22.74;64.23
71996;BME280;59862;47.732;7.346;2023-08-24T07:29:43;98009.58;;;22.82;64.38
71996;BME280;59862;47.732;7.346;2023-08-24T07:32:11;98013.47;;;23.04;63.83
71996;BME280;59862;47.732;7.346;2023-08-24T07:34:38;98014.39;;;22.93;63.86
71996;BME280;59862;47.732;7.346;2023-08-24T07:37:06;98017.42;;;23.03;64.14
71996;BME280;59862;47.732;7.346;2023-08-24T07:39:33;98018.25;;;23.00;63.53
71996;BME280;59862;47.732;7.346;2023-08-24T07:42:01;98014.23;;;23.08;63.79
71996;BME280;59862;47.732;7.346;2023-08-24T07:44:29;98015.59;;;23.31;63.73
71996;BME280;59862;47.732;7.346;2023-08-24T07:46:57;98020.27;;;23.15;63.82
71996;BME280;59862;47.732;7.346;2023-08-24T07:49:24;98020.09;;;23.33;62.69
71996;BME280;59862;47.732;7.346;2023-08-24T07:51:52;98012.95;;;23.70;62.83
71996;BME280;59862;47.732;7.346;2023-08-24T07:54:19;98021.45;;;23.95;61.41
71996;BME280;59862;47.732;7.346;2023-08-24T07:56:46;98018.28;;;24.12;60.05
71996;BME280;59862;47.732;7.346;2023-08-24T07:59:14;98018.59;;;24.18;60.06
71996;BME280;59862;47.732;7.346;2023-08-24T08:01:41;98016.85;;;24.16;60.40
71996;BME280;59862;47.732;7.346;2023-08-24T08:04:09;98010.23;;;24.49;60.45
71996;BME280;59862;47.732;7.346;2023-08-24T08:06:36;98015.25;;;24.30;60.24
71996;BME280;59862;47.732;7.346;2023-08-24T08:09:03;98007.41;;;24.65;59.60
71996;BME280;59862;47.732;7.346;2023-08-24T08:11:32;98007.64;;;24.86;59.62
71996;BME280;59862;47.732;7.346;2023-08-24T08:13:59;98004.73;;;25.05;58.51
71996;BME280;59862;47.732;7.346;2023-08-24T08:16:26;98011.54;;;25.21;57.43
71996;BME280;59862;47.732;7.346;2023-08-24T08:18:54;98009.70;;;25.14;57.38
71996;BME280;59862;47.732;7.346;2023-08-24T08:21:22;98010.95;;;25.41;57.60
71996;BME280;59862;47.732;7.346;2023-08-24T08:23:50;98011.72;;;25.22;56.87
71996;BME280;59862;47.732;7.346;2023-08-24T08:26:17;98018.11;;;25.59;56.33
71996;BME280;59862;47.732;7.346;2023-08-24T08:28:45;98017.69;;;25.97;55.75
71996;BME280;59862;47.732;7.346;2023-08-24T08:31:12;98015.68;;;26.43;54.93
71996;BME280;59862;47.732;7.346;2023-08-24T08:33:39;98012.37;;;26.48;53.83
71996;BME280;59862;47.732;7.346;2023-08-24T08:36:07;98017.97;;;26.94;53.00
71996;BME280;59862;47.732;7.346;2023-08-24T08:38:35;98018.34;;;26.88;53.21
71996;BME280;59862;47.732;7.346;2023-08-24T08:41:03;98019.95;;;27.53;51.79
71996;BME280;59862;47.732;7.346;2023-08-24T08:43:31;98023.09;;;27.47;51.38
71996;BME280;59862;47.732;7.346;2023-08-24T08:45:59;98016.44;;;27.15;52.52
71996;BME280;59862;47.732;7.346;2023-08-24T08:48:30;98009.35;;;27.56;52.05
71996;BME280;59862;47.732;7.346;2023-08-24T08:50:58;98011.64;;;26.85;53.01
71996;BME280;59862;47.732;7.346;2023-08-24T08:53:27;98017.95;;;27.32;51.78
71996;BME280;59862;47.732;7.346;2023-08-24T08:55:56;98015.39;;;27.93;50.42
71996;BME280;59862;47.732;7.346;2023-08-24T08:58:25;98009.49;;;28.43;49.79
71996;BME280;59862;47.732;7.346;2023-08-24T09:00:54;98009.49;;;28.43;49.18
71996;BME280;59862;47.732;7.346;2023-08-24T09:03:23;98004.08;;;28.75;49.29
71996;BME280;59862;47.732;7.346;2023-08-24T09:05:50;98005.27;;;28.82;48.16
71996;BME280;59862;47.732;7.346;2023-08-24T09:08:18;97994.19;;;28.74;49.03
71996;BME280;59862;47.732;7.346;2023-08-24T09:10:45;97995.95;;;28.98;48.57
71996;BME280;59862;47.732;7.346;2023-08-24T09:13:13;97995.63;;;28.96;48.01
71996;BME280;59862;47.732;7.346;2023-08-24T09:15:41;97997.81;;;28.97;48.82
71996;BME280;59862;47.732;7.346;2023-08-24T09:18:08;98005.88;;;29.44;47.76
71996;BME280;59862;47.732;7.346;2023-08-24T09:20:36;98000.91;;;29.21;47.85
71996;BME280;59862;47.732;7.346;2023-08-24T09:23:03;97993.52;;;28.83;48.46
71996;BME280;59862;47.732;7.346;2023-08-24T09:25:31;97991.20;;;29.26;47.90
71996;BME280;59862;47.732;7.346;2023-08-24T09:28:03;97985.88;;;29.63;47.42
71996;BME280;59862;47.732;7.346;2023-08-24T09:30:31;97972.39;;;29.34;47.42
71996;BME280;59862;47.732;7.346;2023-08-24T09:33:03;97970.78;;;29.24;47.53
71996;BME280;59862;47.732;7.346;2023-08-24T09:35:34;97961.92;;;29.16;48.56
71996;BME280;59862;47.732;7.346;2023-08-24T09:38:21;97961.56;;;29.54;47.71
71996;BME280;59862;47.732;7.346;2023-08-24T09:40:53;97953.95;;;29.86;47.22
71996;BME280;59862;47.732;7.346;2023-08-24T09:43:23;97945.89;;;29.79;45.66
71996;BME280;59862;47.732;7.346;2023-08-24T09:45:53;97945.75;;;29.51;47.86
71996;BME280;59862;47.732;7.346;2023-08-24T09:48:22;97944.66;;;29.80;46.85
71996;BME280;59862;47.732;7.346;2023-08-24T09:50:53;97939.20;;;30.22;45.75
71996;BME280;59862;47.732;7.346;2023-08-24T09:53:23;97935.59;;;29.57;46.71
71996;BME280;59862;47.732;7.346;2023-08-24T09:55:58;97935.95;;;29.69;46.10
71996;BME280;59862;47.732;7.346;2023-08-24T09:58:24;97925.59;;;29.74;46.73
71996;BME280;59862;47.732;7.346;2023-08-24T10:00:53;97922.36;;;30.35;46.41
71996;BME280;59862;47.732;7.346;2023-08-24T10:03:26;97916.48;;;30.80;44.78
71996;BME280;59862;47.732;7.346;2023-08-24T10:05:56;97913.09;;;30.85;43.66
71996;BME280;59862;47.732;7.346;2023-08-24T10:08:33;97918.18;;;30.91;43.77
71996;BME280;59862;47.732;7.346;2023-08-24T10:11:00;97916.34;;;30.83;43.63
71996;BME280;59862;47.732;7.346;2023-08-24T10:14:25;97912.44;;;31.09;43.15
71996;BME280;59862;47.732;7.346;2023-08-24T10:16:14;97907.63;;;30.34;44.56
71996;BME280;59862;47.732;7.346;2023-08-24T10:18:43;97904.07;;;31.56;42.74
71996;BME280;59862;47.732;7.346;2023-08-24T10:21:11;97890.89;;;31.57;41.77
71996;BME280;59862;47.732;7.346;2023-08-24T10:23:39;97895.75;;;31.85;41.83
71996;BME280;59862;47.732;7.346;2023-08-24T10:26:07;97898.63;;;31.57;42.63
71996;BME280;59862;47.732;7.346;2023-08-24T10:28:36;97892.56;;;31.25;42.95
71996;BME280;59862;47.732;7.346;2023-08-24T10:31:03;97891.56;;;31.47;43.20
71996;BME280;59862;47.732;7.346;2023-08-24T10:33:32;97884.48;;;31.32;42.82
71996;BME280;59862;47.732;7.346;2023-08-24T10:36:07;97880.84;;;31.50;43.72
71996;BME280;59862;47.732;7.346;2023-08-24T10:38:39;97880.56;;;30.72;44.26
71996;BME280;59862;47.732;7.346;2023-08-24T10:41:05;97882.94;;;31.65;43.25
71996;BME280;59862;47.732;7.346;2023-08-24T10:43:38;97879.23;;;32.41;40.76
71996;BME280;59862;47.732;7.346;2023-08-24T10:46:13;97871.99;;;32.54;41.21
71996;BME280;59862;47.732;7.346;2023-08-24T10:51:23;97865.06;;;32.25;41.39
71996;BME280;59862;47.732;7.346;2023-08-24T10:53:59;97867.05;;;32.49;40.60
71996;BME280;59862;47.732;7.346;2023-08-24T10:56:43;97861.83;;;32.96;39.32
71996;BME280;59862;47.732;7.346;2023-08-24T10:59:16;97868.25;;;32.37;39.90
71996;BME280;59862;47.732;7.346;2023-08-24T11:04:21;97862.30;;;33.09;38.58
71996;BME280;59862;47.732;7.346;2023-08-24T11:06:59;97854.08;;;33.82;38.40
71996;BME280;59862;47.732;7.346;2023-08-24T11:09:46;97853.20;;;34.01;37.49
71996;BME280;59862;47.732;7.346;2023-08-24T11:12:16;97843.45;;;33.50;38.65
71996;BME280;59862;47.732;7.346;2023-08-24T11:14:52;97844.28;;;33.92;37.63
71996;BME280;59862;47.732;7.346;2023-08-24T11:17:21;97839.98;;;33.76;38.17
71996;BME280;59862;47.732;7.346;2023-08-24T11:19:53;97842.86;;;33.71;36.88
71996;BME280;59862;47.732;7.346;2023-08-24T11:22:21;97843.94;;;34.26;36.52
71996;BME280;59862;47.732;7.346;2023-08-24T11:24:49;97836.50;;;34.70;37.01
71996;BME280;59862;47.732;7.346;2023-08-24T11:27:17;97831.70;;;35.03;35.40
71996;BME280;59862;47.732;7.346;2023-08-24T11:29:44;97830.83;;;34.91;34.47
71996;BME280;59862;47.732;7.346;2023-08-24T11:32:12;97825.70;;;34.89;35.85
71996;BME280;59862;47.732;7.346;2023-08-24T11:34:39;97820.17;;;34.21;35.77
71996;BME280;59862;47.732;7.346;2023-08-24T11:37:18;97811.48;;;35.69;34.94
71996;BME280;59862;47.732;7.346;2023-08-24T11:39:37;97803.16;;;36.03;33.74
71996;BME280;59862;47.732;7.346;2023-08-24T11:42:06;97803.16;;;36.03;33.74
71996;BME280;59862;47.732;7.346;2023-08-24T11:44:49;97801.80;;;35.75;34.02
71996;BME280;59862;47.732;7.346;2023-08-24T11:47:19;97792.69;;;36.54;33.51
71996;BME280;59862;47.732;7.346;2023-08-24T11:49:49;97799.43;;;34.76;35.32
71996;BME280;59862;47.732;7.346;2023-08-24T11:52:17;97794.02;;;36.75;32.37
71996;BME280;59862;47.732;7.346;2023-08-24T11:54:45;97792.36;;;36.79;32.80
71996;BME280;59862;47.732;7.346;2023-08-24T11:57:12;97789.44;;;37.65;30.81
71996;BME280;59862;47.732;7.346;2023-08-24T11:59:40;97787.86;;;37.75;30.74
71996;BME280;59862;47.732;7.346;2023-08-24T12:02:09;97783.47;;;37.39;31.26
71996;BME280;59862;47.732;7.346;2023-08-24T12:04:41;97788.52;;;37.98;30.30
71996;BME280;59862;47.732;7.346;2023-08-24T12:07:15;97784.87;;;38.57;29.61
71996;BME280;59862;47.732;7.346;2023-08-24T12:09:42;97780.86;;;38.77;29.27
71996;BME280;59862;47.732;7.346;2023-08-24T12:12:14;97773.58;;;38.87;28.26
71996;BME280;59862;47.732;7.346;2023-08-24T12:14:45;97771.00;;;38.90;28.36
71996;BME280;59862;47.732;7.346;2023-08-24T12:17:14;97775.20;;;38.41;29.42
71996;BME280;59862;47.732;7.346;2023-08-24T12:19:56;97767.68;;;40.23;26.97
71996;BME280;59862;47.732;7.346;2023-08-24T12:22:16;97755.55;;;41.82;24.76
71996;BME280;59862;47.732;7.346;2023-08-24T12:24:45;97737.36;;;40.57;26.17
71996;BME280;59862;47.732;7.346;2023-08-24T12:27:25;97735.20;;;38.61;27.65
71996;BME280;59862;47.732;7.346;2023-08-24T12:29:53;97727.83;;;41.81;24.52
71996;BME280;59862;47.732;7.346;2023-08-24T12:32:21;97724.16;;;41.73;25.05
71996;BME280;59862;47.732;7.346;2023-08-24T12:34:51;97721.91;;;41.92;24.12
71996;BME280;59862;47.732;7.346;2023-08-24T12:37:20;97712.70;;;42.34;23.52
71996;BME280;59862;47.732;7.346;2023-08-24T12:39:48;97715.06;;;42.44;23.13
71996;BME280;59862;47.732;7.346;2023-08-24T12:42:15;97711.97;;;42.91;23.13
71996;BME280;59862;47.732;7.346;2023-08-24T12:44:43;97704.48;;;43.24;22.41
71996;BME280;59862;47.732;7.346;2023-08-24T12:47:10;97697.66;;;44.31;21.51
71996;BME280;59862;47.732;7.346;2023-08-24T12:49:37;97690.34;;;44.53;20.79
71996;BME280;59862;47.732;7.346;2023-08-24T12:52:05;97686.09;;;44.61;20.05
71996;BME280;59862;47.732;7.346;2023-08-24T12:54:33;97675.36;;;43.75;21.14
71996;BME280;59862;47.732;7.346;2023-08-24T12:57:01;97669.30;;;43.79;21.34
71996;BME280;59862;47.732;7.346;2023-08-24T12:59:29;97653.06;;;43.28;21.93
71996;BME280;59862;47.732;7.346;2023-08-24T13:01:56;97649.08;;;44.68;21.01
71996;BME280;59862;47.732;7.346;2023-08-24T13:04:24;97643.02;;;44.17;20.52
71996;BME280;59862;47.732;7.346;2023-08-24T13:06:51;97644.83;;;42.30;22.61
71996;BME280;59862;47.732;7.346;2023-08-24T13:09:19;97645.67;;;43.11;20.97
71996;BME280;59862;47.732;7.346;2023-08-24T13:11:49;97641.22;;;45.08;19.36
71996;BME280;59862;47.732;7.346;2023-08-24T13:14:17;97628.56;;;45.10;19.06
71996;BME280;59862;47.732;7.346;2023-08-24T13:16:44;97625.97;;;43.27;21.45
71996;BME280;59862;47.732;7.346;2023-08-24T13:19:12;97622.87;;;43.62;21.02